sensor_id;sensor_type;location;lat;lon;timestamp;temperature;humidity
2999;DHT22;1509;51.964;7.628;2024-03-23T00:54:36;6.30;99.90
2999;DHT22;1509;51.964;7.628;2024-03-23T00:57:01;6.40;99.90
2999;DHT22;1509;51.964;7.628;2024-03-23T00:59:27;6.50;99.90
2999;DHT22;1509;51.964;7.628;2024-03-23T01:01:54;6.50;99.90
2999;DHT22;1509;51.964;7.628;2024-03-23T01:04:20;6.60;99.90
2999;DHT22;1509;51.964;7.628;2024-03-23T01:06:45;6.60;99.90
2999;DHT22;1509;51.964;7.628;2024-03-23T01:09:11;6.60;99.90
2999;DHT22;1509;51.964;7.628;2024-03-23T01:11:37;6.70;99.90
2999;DHT22;1509;51.964;7.628;2024-03-23T01:14:03;6.60;99.90
2999;DHT22;1509;51.964;7.628;2024-03-23T01:16:28;6.60;99.90
2999;DHT22;1509;51.964;7.628;2024-03-23T01:18:54;6.70;99.90
2999;DHT22;1509;51.964;7.628;2024-03-23T01:21:20;6.70;99.90
2999;DHT22;1509;51.964;7.628;2024-03-23T01:23:45;6.70;99.90
2999;DHT22;1509;51.964;7.628;2024-03-23T01:26:11;6.70;99.90
2999;DHT22;1509;51.964;7.628;2024-03-23T01:28:36;6.60;99.90
2999;DHT22;1509;51.964;7.628;2024-03-23T01:31:02;6.60;99.90
2999;DHT22;1509;51.964;7.628;2024-03-23T01:33:28;6.60;99.90
2999;DHT22;1509;51.964;7.628;2024-03-23T01:35:53;6.60;99.90
2999;DHT22;1509;51.964;7.628;2024-03-23T01:38:19;6.50;99.90
2999;DHT22;1509;51.964;7.628;2024-03-23T01:40:45;6.50;99.90
2999;DHT22;1509;51.964;7.628;2024-03-23T01:43:10;6.50;99.90
2999;DHT22;1509;51.964;7.628;2024-03-23T01:45:36;6.50;99.90
2999;DHT22;1509;51.964;7.628;2024-03-23T01:48:02;6.50;99.90
2999;DHT22;1509;51.964;7.628;2024-03-23T01:50:28;6.40;99.90
2999;DHT22;1509;51.964;7.628;2024-03-23T01:52:56;6.50;99.90
2999;DHT22;1509;51.964;7.628;2024-03-23T01:55:21;6.40;99.90
2999;DHT22;1509;51.964;7.628;2024-03-23T01:57:47;6.40;99.90
2999;DHT22;1509;51.964;7.628;2024-03-23T02:00:13;6.40;99.90
2999;DHT22;1509;51.964;7.628;2024-03-23T02:02:44;6.40;99.90
2999;DHT22;1509;51.964;7.628;2024-03-23T02:05:13;6.50;99.90
2999;DHT22;1509;51.964;7.628;2024-03-23T02:07:40;6.50;99.90
2999;DHT22;1509;51.964;7.628;2024-03-23T02:10:07;6.60;99.90
2999;DHT22;1509;51.964;7.628;2024-03-23T02:12:33;6.50;99.90
2999;DHT22;1509;51.964;7.628;2024-03-23T02:14:59;6.40;99.90
2999;DHT22;1509;51.964;7.628;2024-03-23T02:17:24;6.50;99.90
2999;DHT22;1509;51.964;7.628;2024-03-23T02:19:50;6.50;99.90
2999;DHT22;1509;51.964;7.628;2024-03-23T02:22:16;6.50;99.90
2999;DHT22;1509;51.964;7.628;2024-03-23T02:24:42;6.60;99.90
2999;DHT22;1509;51.964;7.628;2024-03-23T02:27:08;6.40;99.90
2999;DHT22;1509;51.964;7.628;2024-03-23T02:29:34;6.40;99.90
2999;DHT22;1509;51.964;7.628;2024-03-23T02:31:59;6.40;99.90
2999;DHT22;1509;51.964;7.628;2024-03-23T02:34:25;6.50;99.90
2999;DHT22;1509;51.964;7.628;2024-03-23T02:36:51;6.40;99.90
2999;DHT22;1509;51.964;7.628;2024-03-23T02:39:16;6.50;99.90
2999;DHT22;1509;51.964;7.628;2024-03-23T02:41:45;6.40;99.90
2999;DHT22;1509;51.964;7.628;2024-03-23T02:44:10;6.50;99.90
2999;DHT22;1509;51.964;7.628;2024-03-23T02:46:38;6.50;99.90
2999;DHT22;1509;51.964;7.628;2024-03-23T02:49:03;6.40;99.90
2999;DHT22;1509;51.964;7.628;2024-03-23T02:51:30;6.40;99.90
2999;DHT22;1509;51.964;7.628;2024-03-23T02:53:56;6.50;99.90
2999;DHT22;1509;51.964;7.628;2024-03-23T02:56:21;6.50;99.90
2999;DHT22;1509;51.964;7.628;2024-03-23T02:58:47;6.40;99.90
2999;DHT22;1509;51.964;7.628;2024-03-23T03:01:13;6.50;99.90
2999;DHT22;1509;51.964;7.628;2024-03-23T03:03:38;6.40;99.90
2999;DHT22;1509;51.964;7.628;2024-03-23T03:06:04;6.50;99.90
2999;DHT22;1509;51.964;7.628;2024-03-23T03:08:29;6.50;99.90
2999;DHT22;1509;51.964;7.628;2024-03-23T03:10:55;6.50;99.90
2999;DHT22;1509;51.964;7.628;2024-03-23T03:13:21;6.50;99.90
2999;DHT22;1509;51.964;7.628;2024-03-23T03:15:46;6.40;99.90
2999;DHT22;1509;51.964;7.628;2024-03-23T03:18:12;6.50;99.90
2999;DHT22;1509;51.964;7.628;2024-03-23T03:20:40;6.40;99.90
2999;DHT22;1509;51.964;7.628;2024-03-23T03:23:07;6.40;99.90
2999;DHT22;1509;51.964;7.628;2024-03-23T03:25:33;6.40;99.90
2999;DHT22;1509;51.964;7.628;2024-03-23T03:27:58;6.40;99.90
2999;DHT22;1509;51.964;7.628;2024-03-23T03:30:24;6.40;99.90
2999;DHT22;1509;51.964;7.628;2024-03-23T03:32:54;6.40;99.90
2999;DHT22;1509;51.964;7.628;2024-03-23T03:35:23;6.40;99.90
2999;DHT22;1509;51.964;7.628;2024-03-23T03:37:48;6.40;99.90
2999;DHT22;1509;51.964;7.628;2024-03-23T03:40:14;6.50;99.90
2999;DHT22;1509;51.964;7.628;2024-03-23T03:42:42;6.40;99.90
2999;DHT22;1509;51.964;7.628;2024-03-23T03:45:08;6.40;99.90
2999;DHT22;1509;51.964;7.628;2024-03-23T03:47:34;6.40;99.90
2999;DHT22;1509;51.964;7.628;2024-03-23T03:49:59;6.40;99.90
2999;DHT22;1509;51.964;7.628;2024-03-23T03:52:25;6.30;99.90
2999;DHT22;1509;51.964;7.628;2024-03-23T03:54:51;6.30;99.90
2999;DHT22;1509;51.964;7.628;2024-03-23T03:57:16;6.40;99.90
2999;DHT22;1509;51.964;7.628;2024-03-23T03:59:42;6.40;99.90
2999;DHT22;1509;51.964;7.628;2024-03-23T04:02:17;6.50;99.90
2999;DHT22;1509;51.964;7.628;2024-03-23T04:04:53;6.50;99.90
2999;DHT22;1509;51.964;7.628;2024-03-23T04:07:22;6.40;99.90
2999;DHT22;1509;51.964;7.628;2024-03-23T04:09:49;6.40;99.90
2999;DHT22;1509;51.964;7.628;2024-03-23T04:12:15;6.40;99.90
2999;DHT22;1509;51.964;7.628;2024-03-23T04:14:40;6.30;99.90
2999;DHT22;1509;51.964;7.628;2024-03-23T04:17:07;6.40;99.90
2999;DHT22;1509;51.964;7.628;2024-03-23T04:19:32;6.40;99.90
2999;DHT22;1509;51.964;7.628;2024-03-23T04:21:58;6.40;99.90
2999;DHT22;1509;51.964;7.628;2024-03-23T04:24:23;6.40;99.90
2999;DHT22;1509;51.964;7.628;2024-03-23T04:26:51;6.50;99.90
2999;DHT22;1509;51.964;7.628;2024-03-23T04:29:17;6.40;99.90
2999;DHT22;1509;51.964;7.628;2024-03-23T04:31:42;6.40;99.90
2999;DHT22;1509;51.964;7.628;2024-03-23T04:34:08;6.40;99.90
2999;DHT22;1509;51.964;7.628;2024-03-23T04:36:33;6.40;99.90
2999;DHT22;1509;51.964;7.628;2024-03-23T04:39:00;6.40;99.90
2999;DHT22;1509;51.964;7.628;2024-03-23T04:41:26;6.40;99.90
2999;DHT22;1509;51.964;7.628;2024-03-23T04:43:52;6.40;99.90
2999;DHT22;1509;51.964;7.628;2024-03-23T04:46:17;6.40;99.90
2999;DHT22;1509;51.964;7.628;2024-03-23T04:48:43;6.40;99.90
2999;DHT22;1509;51.964;7.628;2024-03-23T04:51:10;6.40;99.90
2999;DHT22;1509;51.964;7.628;2024-03-23T04:53:38;6.40;99.90
2999;DHT22;1509;51.964;7.628;2024-03-23T04:56:06;6.40;99.90
2999;DHT22;1509;51.964;7.628;2024-03-23T04:58:31;6.40;99.90
2999;DHT22;1509;51.964;7.628;2024-03-23T05:00:57;6.40;99.90
2999;DHT22;1509;51.964;7.628;2024-03-23T05:03:23;6.40;99.90
2999;DHT22;1509;51.964;7.628;2024-03-23T05:05:51;6.40;99.90
2999;DHT22;1509;51.964;7.628;2024-03-23T05:08:20;6.40;99.90
2999;DHT22;1509;51.964;7.628;2024-03-23T05:10:45;6.40;99.90
2999;DHT22;1509;51.964;7.628;2024-03-23T05:13:11;6.30;99.90
2999;DHT22;1509;51.964;7.628;2024-03-23T05:15:37;6.40;99.90
2999;DHT22;1509;51.964;7.628;2024-03-23T05:18:04;6.40;99.90
2999;DHT22;1509;51.964;7.628;2024-03-23T05:20:31;6.40;99.90
2999;DHT22;1509;51.964;7.628;2024-03-23T05:22:56;6.40;99.90
2999;DHT22;1509;51.964;7.628;2024-03-23T05:25:22;6.40;99.90
2999;DHT22;1509;51.964;7.628;2024-03-23T05:27:48;6.40;99.90
2999;DHT22;1509;51.964;7.628;2024-03-23T05:30:14;6.40;99.90
2999;DHT22;1509;51.964;7.628;2024-03-23T05:32:42;6.40;99.90
2999;DHT22;1509;51.964;7.628;2024-03-23T05:35:09;6.40;99.90
2999;DHT22;1509;51.964;7.628;2024-03-23T05:37:35;6.40;99.90
2999;DHT22;1509;51.964;7.628;2024-03-23T05:40:01;6.30;99.90
2999;DHT22;1509;51.964;7.628;2024-03-23T05:42:26;6.30;99.90
2999;DHT22;1509;51.964;7.628;2024-03-23T05:44:52;6.20;99.90
2999;DHT22;1509;51.964;7.628;2024-03-23T05:47:18;6.20;99.90
2999;DHT22;1509;51.964;7.628;2024-03-23T05:49:45;6.10;99.90
2999;DHT22;1509;51.964;7.628;2024-03-23T05:52:11;6.10;99.90
2999;DHT22;1509;51.964;7.628;2024-03-23T05:54:37;6.20;99.90
2999;DHT22;1509;51.964;7.628;2024-03-23T05:57:03;6.10;99.90
2999;DHT22;1509;51.964;7.628;2024-03-23T05:59:29;6.00;99.90
2999;DHT22;1509;51.964;7.628;2024-03-23T06:01:55;6.00;99.90
2999;DHT22;1509;51.964;7.628;2024-03-23T06:04:20;6.00;99.90
2999;DHT22;1509;51.964;7.628;2024-03-23T06:06:49;6.00;99.90
2999;DHT22;1509;51.964;7.628;2024-03-23T06:09:17;6.10;99.90
2999;DHT22;1509;51.964;7.628;2024-03-23T06:11:43;6.00;99.90
2999;DHT22;1509;51.964;7.628;2024-03-23T06:14:08;6.00;99.90
2999;DHT22;1509;51.964;7.628;2024-03-23T06:16:34;6.00;99.90
2999;DHT22;1509;51.964;7.628;2024-03-23T06:19:00;6.10;99.90
2999;DHT22;1509;51.964;7.628;2024-03-23T06:21:25;6.10;99.90
2999;DHT22;1509;51.964;7.628;2024-03-23T06:23:52;6.10;99.90
2999;DHT22;1509;51.964;7.628;2024-03-23T06:26:21;6.10;99.90
2999;DHT22;1509;51.964;7.628;2024-03-23T06:28:47;6.20;99.90
2999;DHT22;1509;51.964;7.628;2024-03-23T06:31:16;6.20;99.90
2999;DHT22;1509;51.964;7.628;2024-03-23T06:33:41;6.30;99.90
2999;DHT22;1509;51.964;7.628;2024-03-23T06:36:10;6.40;99.90
2999;DHT22;1509;51.964;7.628;2024-03-23T06:38:39;6.50;99.90
2999;DHT22;1509;51.964;7.628;2024-03-23T06:41:05;6.50;99.90
2999;DHT22;1509;51.964;7.628;2024-03-23T06:43:31;6.60;99.90
2999;DHT22;1509;51.964;7.628;2024-03-23T06:46:02;6.60;99.90
2999;DHT22;1509;51.964;7.628;2024-03-23T06:48:29;6.60;99.90
2999;DHT22;1509;51.964;7.628;2024-03-23T06:50:56;6.60;99.90
2999;DHT22;1509;51.964;7.628;2024-03-23T06:53:22;6.60;99.90
2999;DHT22;1509;51.964;7.628;2024-03-23T06:55:52;6.50;99.90
2999;DHT22;1509;51.964;7.628;2024-03-23T06:58:24;6.50;99.90
2999;DHT22;1509;51.964;7.628;2024-03-23T07:00:50;6.50;99.90
2999;DHT22;1509;51.964;7.628;2024-03-23T07:03:18;6.50;99.90
2999;DHT22;1509;51.964;7.628;2024-03-23T07:05:44;6.60;99.90
2999;DHT22;1509;51.964;7.628;2024-03-23T07:08:11;6.60;99.90
2999;DHT22;1509;51.964;7.628;2024-03-23T07:10:39;6.60;99.90
2999;DHT22;1509;51.964;7.628;2024-03-23T07:13:08;6.60;99.90
2999;DHT22;1509;51.964;7.628;2024-03-23T07:15:34;6.60;99.90
2999;DHT22;1509;51.964;7.628;2024-03-23T07:17:59;6.70;99.90
2999;DHT22;1509;51.964;7.628;2024-03-23T07:20:25;6.80;99.90
2999;DHT22;1509;51.964;7.628;2024-03-23T07:22:50;6.80;99.90
2999;DHT22;1509;51.964;7.628;2024-03-23T07:25:16;6.80;99.90
2999;DHT22;1509;51.964;7.628;2024-03-23T07:27:42;6.80;99.90
2999;DHT22;1509;51.964;7.628;2024-03-23T07:30:08;7.10;99.90
2999;DHT22;1509;51.964;7.628;2024-03-23T07:32:34;6.90;99.90
2999;DHT22;1509;51.964;7.628;2024-03-23T07:35:03;6.80;99.90
2999;DHT22;1509;51.964;7.628;2024-03-23T07:37:29;7.00;99.90
2999;DHT22;1509;51.964;7.628;2024-03-23T07:39:55;7.10;99.90
2999;DHT22;1509;51.964;7.628;2024-03-23T07:42:20;7.10;99.90
2999;DHT22;1509;51.964;7.628;2024-03-23T07:44:46;7.10;99.90
2999;DHT22;1509;51.964;7.628;2024-03-23T07:47:12;7.20;99.90
2999;DHT22;1509;51.964;7.628;2024-03-23T07:49:39;7.30;99.90
2999;DHT22;1509;51.964;7.628;2024-03-23T07:52:05;7.40;99.90
2999;DHT22;1509;51.964;7.628;2024-03-23T07:54:31;7.40;99.90
2999;DHT22;1509;51.964;7.628;2024-03-23T07:56:57;7.50;99.90
2999;DHT22;1509;51.964;7.628;2024-03-23T07:59:22;7.60;99.90
2999;DHT22;1509;51.964;7.628;2024-03-23T08:01:48;7.70;99.90
2999;DHT22;1509;51.964;7.628;2024-03-23T08:04:14;7.70;99.90
2999;DHT22;1509;51.964;7.628;2024-03-23T08:06:39;7.80;99.90
2999;DHT22;1509;51.964;7.628;2024-03-23T08:09:05;7.90;99.90
2999;DHT22;1509;51.964;7.628;2024-03-23T08:11:32;8.10;99.90
2999;DHT22;1509;51.964;7.628;2024-03-23T08:13:59;8.30;99.90
2999;DHT22;1509;51.964;7.628;2024-03-23T08:16:27;8.40;99.90
2999;DHT22;1509;51.964;7.628;2024-03-23T08:18:53;8.50;99.90
2999;DHT22;1509;51.964;7.628;2024-03-23T08:21:19;8.30;99.90
2999;DHT22;1509;51.964;7.628;2024-03-23T08:23:44;8.20;99.90
2999;DHT22;1509;51.964;7.628;2024-03-23T08:26:12;8.30;99.90
2999;DHT22;1509;51.964;7.628;2024-03-23T08:28:38;8.10;99.90
2999;DHT22;1509;51.964;7.628;2024-03-23T08:31:08;8.40;99.90
2999;DHT22;1509;51.964;7.628;2024-03-23T08:33:34;8.60;99.90
2999;DHT22;1509;51.964;7.628;2024-03-23T08:36:01;8.90;99.90
2999;DHT22;1509;51.964;7.628;2024-03-23T08:38:28;9.20;99.90
2999;DHT22;1509;51.964;7.628;2024-03-23T08:41:12;9.30;99.90
2999;DHT22;1509;51.964;7.628;2024-03-23T08:43:39;9.10;99.90
2999;DHT22;1509;51.964;7.628;2024-03-23T08:46:09;9.00;99.90
2999;DHT22;1509;51.964;7.628;2024-03-23T08:48:40;8.80;99.90
2999;DHT22;1509;51.964;7.628;2024-03-23T08:51:10;9.20;99.90
2999;DHT22;1509;51.964;7.628;2024-03-23T08:53:36;9.60;99.90
2999;DHT22;1509;51.964;7.628;2024-03-23T08:56:03;9.20;99.90
2999;DHT22;1509;51.964;7.628;2024-03-23T08:58:30;8.80;99.90
2999;DHT22;1509;51.964;7.628;2024-03-23T09:01:02;8.90;99.90
2999;DHT22;1509;51.964;7.628;2024-03-23T09:03:28;9.00;99.90
2999;DHT22;1509;51.964;7.628;2024-03-23T09:05:54;9.10;99.90
2999;DHT22;1509;51.964;7.628;2024-03-23T09:08:21;9.20;99.90
2999;DHT22;1509;51.964;7.628;2024-03-23T09:10:47;9.50;99.90
2999;DHT22;1509;51.964;7.628;2024-03-23T09:13:13;10.00;99.90
2999;DHT22;1509;51.964;7.628;2024-03-23T09:15:47;10.10;99.90
2999;DHT22;1509;51.964;7.628;2024-03-23T09:18:13;10.70;99.90
2999;DHT22;1509;51.964;7.628;2024-03-23T09:20:38;10.80;99.90
2999;DHT22;1509;51.964;7.628;2024-03-23T09:23:04;10.50;99.90
2999;DHT22;1509;51.964;7.628;2024-03-23T09:25:30;10.00;99.90
2999;DHT22;1509;51.964;7.628;2024-03-23T09:27:55;10.20;99.90
2999;DHT22;1509;51.964;7.628;2024-03-23T09:30:21;10.80;99.90
2999;DHT22;1509;51.964;7.628;2024-03-23T09:32:46;11.80;99.90
2999;DHT22;1509;51.964;7.628;2024-03-23T09:35:12;11.80;99.90
2999;DHT22;1509;51.964;7.628;2024-03-23T09:37:39;11.00;99.90
2999;DHT22;1509;51.964;7.628;2024-03-23T09:40:10;9.80;99.90
2999;DHT22;1509;51.964;7.628;2024-03-23T09:42:36;9.30;99.90
2999;DHT22;1509;51.964;7.628;2024-03-23T09:45:04;8.90;99.90
2999;DHT22;1509;51.964;7.628;2024-03-23T09:47:31;8.70;99.90
2999;DHT22;1509;51.964;7.628;2024-03-23T09:49:57;8.80;99.90
2999;DHT22;1509;51.964;7.628;2024-03-23T09:52:23;8.90;99.90
2999;DHT22;1509;51.964;7.628;2024-03-23T09:54:49;9.00;99.90
2999;DHT22;1509;51.964;7.628;2024-03-23T09:57:14;9.80;99.90
2999;DHT22;1509;51.964;7.628;2024-03-23T09:59:40;11.30;99.90
2999;DHT22;1509;51.964;7.628;2024-03-23T10:02:07;12.50;99.90
2999;DHT22;1509;51.964;7.628;2024-03-23T10:04:42;13.60;99.90
2999;DHT22;1509;51.964;7.628;2024-03-23T10:07:12;13.90;99.90
2999;DHT22;1509;51.964;7.628;2024-03-23T10:09:38;14.50;99.90
2999;DHT22;1509;51.964;7.628;2024-03-23T10:12:17;14.50;99.90
2999;DHT22;1509;51.964;7.628;2024-03-23T10:14:44;13.60;99.90
2999;DHT22;1509;51.964;7.628;2024-03-23T10:17:16;13.10;99.90
2999;DHT22;1509;51.964;7.628;2024-03-23T10:19:45;12.60;99.90
2999;DHT22;1509;51.964;7.628;2024-03-23T10:22:22;11.70;99.90
2999;DHT22;1509;51.964;7.628;2024-03-23T10:24:48;11.10;99.90
2999;DHT22;1509;51.964;7.628;2024-03-23T10:27:21;11.70;99.90
2999;DHT22;1509;51.964;7.628;2024-03-23T10:29:47;11.60;99.90
2999;DHT22;1509;51.964;7.628;2024-03-23T10:32:14;11.10;99.90
2999;DHT22;1509;51.964;7.628;2024-03-23T10:34:40;12.00;99.90
2999;DHT22;1509;51.964;7.628;2024-03-23T10:37:07;13.30;99.90
2999;DHT22;1509;51.964;7.628;2024-03-23T10:39:37;14.20;99.90
2999;DHT22;1509;51.964;7.628;2024-03-23T10:42:04;14.30;99.90
2999;DHT22;1509;51.964;7.628;2024-03-23T10:44:31;14.30;99.90
2999;DHT22;1509;51.964;7.628;2024-03-23T10:47:02;14.60;99.90
2999;DHT22;1509;51.964;7.628;2024-03-23T10:49:32;13.80;99.90
2999;DHT22;1509;51.964;7.628;2024-03-23T10:52:05;14.00;99.90
2999;DHT22;1509;51.964;7.628;2024-03-23T10:54:32;14.20;99.90
2999;DHT22;1509;51.964;7.628;2024-03-23T10:57:15;15.20;99.90
2999;DHT22;1509;51.964;7.628;2024-03-23T10:59:43;15.80;99.90
2999;DHT22;1509;51.964;7.628;2024-03-23T11:02:18;16.50;99.90
2999;DHT22;1509;51.964;7.628;2024-03-23T11:04:44;16.20;99.90
2999;DHT22;1509;51.964;7.628;2024-03-23T11:07:32;14.70;99.90
2999;DHT22;1509;51.964;7.628;2024-03-23T11:09:59;12.80;99.90
2999;DHT22;1509;51.964;7.628;2024-03-23T11:12:26;12.70;99.90
2999;DHT22;1509;51.964;7.628;2024-03-23T11:14:56;13.30;99.90
2999;DHT22;1509;51.964;7.628;2024-03-23T11:17:23;13.60;99.90
2999;DHT22;1509;51.964;7.628;2024-03-23T11:27:43;9.80;99.90
2999;DHT22;1509;51.964;7.628;2024-03-23T11:30:19;9.40;99.90
2999;DHT22;1509;51.964;7.628;2024-03-23T11:32:48;9.30;99.90
2999;DHT22;1509;51.964;7.628;2024-03-23T11:35:31;9.30;99.90
2999;DHT22;1509;51.964;7.628;2024-03-23T11:40:45;8.90;99.90
2999;DHT22;1509;51.964;7.628;2024-03-23T11:43:19;9.20;99.90
2999;DHT22;1509;51.964;7.628;2024-03-23T11:45:51;9.20;99.90
2999;DHT22;1509;51.964;7.628;2024-03-23T11:48:19;9.30;99.90
2999;DHT22;1509;51.964;7.628;2024-03-23T11:50:49;9.30;99.90
2999;DHT22;1509;51.964;7.628;2024-03-23T11:53:20;9.20;99.90
2999;DHT22;1509;51.964;7.628;2024-03-23T11:55:48;9.10;99.90
2999;DHT22;1509;51.964;7.628;2024-03-23T11:58:15;9.50;99.90
2999;DHT22;1509;51.964;7.628;2024-03-23T12:00:49;10.60;99.90
2999;DHT22;1509;51.964;7.628;2024-03-23T12:03:16;12.00;99.90
2999;DHT22;1509;51.964;7.628;2024-03-23T12:05:48;13.40;99.90
2999;DHT22;1509;51.964;7.628;2024-03-23T12:10:53;13.30;99.90
2999;DHT22;1509;51.964;7.628;2024-03-23T12:13:22;13.30;99.90
2999;DHT22;1509;51.964;7.628;2024-03-23T12:15:50;13.20;99.90
2999;DHT22;1509;51.964;7.628;2024-03-23T12:18:16;13.60;99.90
2999;DHT22;1509;51.964;7.628;2024-03-23T12:20:42;12.80;99.90
2999;DHT22;1509;51.964;7.628;2024-03-23T12:23:12;11.60;99.90
2999;DHT22;1509;51.964;7.628;2024-03-23T12:25:41;10.70;99.90
2999;DHT22;1509;51.964;7.628;2024-03-23T12:28:07;10.00;99.90
2999;DHT22;1509;51.964;7.628;2024-03-23T12:30:36;9.50;99.90
2999;DHT22;1509;51.964;7.628;2024-03-23T12:33:04;10.40;99.90
2999;DHT22;1509;51.964;7.628;2024-03-23T12:35:29;10.90;99.90
2999;DHT22;1509;51.964;7.628;2024-03-23T12:37:55;10.60;99.90
2999;DHT22;1509;51.964;7.628;2024-03-23T12:40:21;10.00;99.90
2999;DHT22;1509;51.964;7.628;2024-03-23T12:42:47;8.90;99.90
2999;DHT22;1509;51.964;7.628;2024-03-23T12:45:12;8.00;99.90
2999;DHT22;1509;51.964;7.628;2024-03-23T12:47:38;8.60;99.90
2999;DHT22;1509;51.964;7.628;2024-03-23T12:50:06;9.70;99.90
2999;DHT22;1509;51.964;7.628;2024-03-23T12:52:33;10.70;99.90
2999;DHT22;1509;51.964;7.628;2024-03-23T12:54:59;11.70;99.90
2999;DHT22;1509;51.964;7.628;2024-03-23T12:57:25;12.00;99.90
2999;DHT22;1509;51.964;7.628;2024-03-23T12:59:53;12.40;99.90
2999;DHT22;1509;51.964;7.628;2024-03-23T13:02:22;12.50;99.90
2999;DHT22;1509;51.964;7.628;2024-03-23T13:04:52;12.30;99.90
2999;DHT22;1509;51.964;7.628;2024-03-23T13:07:18;11.70;99.90
2999;DHT22;1509;51.964;7.628;2024-03-23T13:09:44;12.00;99.90
2999;DHT22;1509;51.964;7.628;2024-03-23T13:12:11;12.10;99.90
2999;DHT22;1509;51.964;7.628;2024-03-23T13:14:40;11.70;99.90
2999;DHT22;1509;51.964;7.628;2024-03-23T13:17:06;11.40;99.90
2999;DHT22;1509;51.964;7.628;2024-03-23T13:19:32;11.20;99.90
2999;DHT22;1509;51.964;7.628;2024-03-23T13:21:59;10.90;99.90
2999;DHT22;1509;51.964;7.628;2024-03-23T13:24:26;10.70;99.90
2999;DHT22;1509;51.964;7.628;2024-03-23T13:26:52;10.60;99.90
2999;DHT22;1509;51.964;7.628;2024-03-23T13:29:19;10.50;99.90
2999;DHT22;1509;51.964;7.628;2024-03-23T13:31:45;9.80;99.90
2999;DHT22;1509;51.964;7.628;2024-03-23T13:34:11;8.80;99.90
2999;DHT22;1509;51.964;7.628;2024-03-23T13:36:37;8.30;99.90
2999;DHT22;1509;51.964;7.628;2024-03-23T13:39:03;8.10;99.90
2999;DHT22;1509;51.964;7.628;2024-03-23T13:41:45;7.90;99.90
2999;DHT22;1509;51.964;7.628;2024-03-23T13:44:12;7.70;99.90
2999;DHT22;1509;51.964;7.628;2024-03-23T13:46:39;7.40;99.90
2999;DHT22;1509;51.964;7.628;2024-03-23T13:49:05;7.20;99.90
2999;DHT22;1509;51.964;7.628;2024-03-23T13:51:31;7.20;99.90
2999;DHT22;1509;51.964;7.628;2024-03-23T13:54:00;7.10;99.90
2999;DHT22;1509;51.964;7.628;2024-03-23T13:56:27;7.20;99.90
2999;DHT22;1509;51.964;7.628;2024-03-23T13:58:55;7.00;99.90
2999;DHT22;1509;51.964;7.628;2024-03-23T14:01:20;7.20;99.90
2999;DHT22;1509;51.964;7.628;2024-03-23T14:03:46;7.20;99.90
2999;DHT22;1509;51.964;7.628;2024-03-23T14:06:12;7.20;99.90
2999;DHT22;1509;51.964;7.628;2024-03-23T14:08:38;7.40;99.90
2999;DHT22;1509;51.964;7.628;2024-03-23T14:11:10;7.70;99.90
2999;DHT22;1509;51.964;7.628;2024-03-23T14:13:35;8.30;99.90
2999;DHT22;1509;51.964;7.628;2024-03-23T14:16:02;8.70;99.90
2999;DHT22;1509;51.964;7.628;2024-03-23T14:18:28;8.90;99.90
2999;DHT22;1509;51.964;7.628;2024-03-23T14:20:57;9.30;99.90
2999;DHT22;1509;51.964;7.628;2024-03-23T14:23:27;9.40;99.90
2999;DHT22;1509;51.964;7.628;2024-03-23T14:25:55;9.50;99.90
2999;DHT22;1509;51.964;7.628;2024-03-23T14:28:22;9.80;99.90
2999;DHT22;1509;51.964;7.628;2024-03-23T14:30:49;10.10;99.90
2999;DHT22;1509;51.964;7.628;2024-03-23T14:33:15;10.40;99.90
2999;DHT22;1509;51.964;7.628;2024-03-23T14:35:41;10.70;99.90
2999;DHT22;1509;51.964;7.628;2024-03-23T14:38:06;10.90;99.90
2999;DHT22;1509;51.964;7.628;2024-03-23T14:40:33;10.80;99.90
2999;DHT22;1509;51.964;7.628;2024-03-23T14:42:58;10.50;99.90
2999;DHT22;1509;51.964;7.628;2024-03-23T14:45:24;10.20;99.90
2999;DHT22;1509;51.964;7.628;2024-03-23T14:47:53;9.90;99.90
2999;DHT22;1509;51.964;7.628;2024-03-23T14:50:18;9.90;99.90
2999;DHT22;1509;51.964;7.628;2024-03-23T14:52:47;9.90;99.90
2999;DHT22;1509;51.964;7.628;2024-03-23T14:55:13;9.80;99.90
2999;DHT22;1509;51.964;7.628;2024-03-23T14:57:39;9.90;99.90
2999;DHT22;1509;51.964;7.628;2024-03-23T15:00:08;9.90;99.90
2999;DHT22;1509;51.964;7.628;2024-03-23T15:02:39;9.90;99.90
2999;DHT22;1509;51.964;7.628;2024-03-23T15:05:07;9.80;99.90
2999;DHT22;1509;51.964;7.628;2024-03-23T15:07:36;10.00;99.90
2999;DHT22;1509;51.964;7.628;2024-03-23T15:10:04;10.10;99.90
2999;DHT22;1509;51.964;7.628;2024-03-23T15:12:31;10.10;99.90
2999;DHT22;1509;51.964;7.628;2024-03-23T15:14:59;9.80;99.90
2999;DHT22;1509;51.964;7.628;2024-03-23T15:17:25;9.80;99.90
2999;DHT22;1509;51.964;7.628;2024-03-23T15:19:51;9.70;99.90
2999;DHT22;1509;51.964;7.628;2024-03-23T15:22:16;9.50;99.90
2999;DHT22;1509;51.964;7.628;2024-03-23T15:24:42;9.30;99.90
2999;DHT22;1509;51.964;7.628;2024-03-23T15:27:08;9.00;99.90
2999;DHT22;1509;51.964;7.628;2024-03-23T15:29:34;8.60;99.90
2999;DHT22;1509;51.964;7.628;2024-03-23T15:32:01;7.90;99.90
2999;DHT22;1509;51.964;7.628;2024-03-23T15:34:26;7.80;99.90
2999;DHT22;1509;51.964;7.628;2024-03-23T15:36:52;7.60;99.90
2999;DHT22;1509;51.964;7.628;2024-03-23T15:39:18;7.70;99.90
2999;DHT22;1509;51.964;7.628;2024-03-23T15:41:45;7.60;99.90
2999;DHT22;1509;51.964;7.628;2024-03-23T15:44:10;7.60;99.90
2999;DHT22;1509;51.964;7.628;2024-03-23T15:46:36;7.60;99.90
2999;DHT22;1509;51.964;7.628;2024-03-23T15:49:02;7.70;99.90
2999;DHT22;1509;51.964;7.628;2024-03-23T15:51:27;7.50;99.90
2999;DHT22;1509;51.964;7.628;2024-03-23T15:54:00;7.20;99.90
2999;DHT22;1509;51.964;7.628;2024-03-23T15:56:28;6.90;99.90
2999;DHT22;1509;51.964;7.628;2024-03-23T15:58:57;7.10;99.90
2999;DHT22;1509;51.964;7.628;2024-03-23T16:01:30;7.10;99.90
2999;DHT22;1509;51.964;7.628;2024-03-23T16:03:57;7.20;99.90
2999;DHT22;1509;51.964;7.628;2024-03-23T16:06:23;7.40;99.90
2999;DHT22;1509;51.964;7.628;2024-03-23T16:08:49;7.50;99.90
2999;DHT22;1509;51.964;7.628;2024-03-23T16:11:14;7.50;99.90
2999;DHT22;1509;51.964;7.628;2024-03-23T16:13:40;7.50;99.90
2999;DHT22;1509;51.964;7.628;2024-03-23T16:16:06;7.50;99.90
2999;DHT22;1509;51.964;7.628;2024-03-23T16:18:33;7.50;99.90
2999;DHT22;1509;51.964;7.628;2024-03-23T16:21:04;7.60;99.90
2999;DHT22;1509;51.964;7.628;2024-03-23T16:23:32;7.60;99.90
2999;DHT22;1509;51.964;7.628;2024-03-23T16:25:58;7.70;99.90
2999;DHT22;1509;51.964;7.628;2024-03-23T16:28:28;7.80;99.90
2999;DHT22;1509;51.964;7.628;2024-03-23T16:30:58;7.80;99.90
2999;DHT22;1509;51.964;7.628;2024-03-23T16:33:25;7.90;99.90
2999;DHT22;1509;51.964;7.628;2024-03-23T16:38:33;8.10;99.90
2999;DHT22;1509;51.964;7.628;2024-03-23T16:41:09;8.10;99.90
2999;DHT22;1509;51.964;7.628;2024-03-23T16:43:38;8.00;99.90
2999;DHT22;1509;51.964;7.628;2024-03-23T16:46:09;8.00;99.90
2999;DHT22;1509;51.964;7.628;2024-03-23T16:48:36;7.90;99.90
2999;DHT22;1509;51.964;7.628;2024-03-23T16:51:03;7.90;99.90
2999;DHT22;1509;51.964;7.628;2024-03-23T16:53:29;7.90;99.90
2999;DHT22;1509;51.964;7.628;2024-03-23T16:55:59;7.80;99.90
2999;DHT22;1509;51.964;7.628;2024-03-23T16:58:25;7.80;99.90
2999;DHT22;1509;51.964;7.628;2024-03-23T17:00:51;7.80;99.90
2999;DHT22;1509;51.964;7.628;2024-03-23T17:03:19;7.80;99.90
2999;DHT22;1509;51.964;7.628;2024-03-23T17:05:50;7.90;99.90
2999;DHT22;1509;51.964;7.628;2024-03-23T17:08:17;7.80;99.90
2999;DHT22;1509;51.964;7.628;2024-03-23T17:10:43;7.90;99.90
2999;DHT22;1509;51.964;7.628;2024-03-23T17:13:09;8.00;99.90
2999;DHT22;1509;51.964;7.628;2024-03-23T17:15:44;8.10;99.90
2999;DHT22;1509;51.964;7.628;2024-03-23T17:18:10;7.90;99.90
2999;DHT22;1509;51.964;7.628;2024-03-23T17:20:36;7.70;99.90
2999;DHT22;1509;51.964;7.628;2024-03-23T17:23:02;7.50;99.90